sensor_id;sensor_type;location;lat;lon;timestamp;P1;durP1;ratioP1;P2;durP2;ratioP2
1404;SDS011;697;51.114;6.542;2023-06-10T00:00:06;10.93;;;9.70;;
1404;SDS011;697;51.114;6.542;2023-06-10T00:02:33;10.60;;;8.83;;
1404;SDS011;697;51.114;6.542;2023-06-10T00:05:00;9.60;;;8.80;;
1404;SDS011;697;51.114;6.542;2023-06-10T00:07:28;9.40;;;8.50;;
1404;SDS011;697;51.114;6.542;2023-06-10T00:09:55;10.00;;;9.13;;
1404;SDS011;697;51.114;6.542;2023-06-10T00:12:22;9.13;;;8.33;;
1404;SDS011;697;51.114;6.542;2023-06-10T00:14:49;9.30;;;8.50;;
1404;SDS011;697;51.114;6.542;2023-06-10T00:17:16;10.30;;;9.50;;
1404;SDS011;697;51.114;6.542;2023-06-10T00:19:43;10.50;;;9.70;;
1404;SDS011;697;51.114;6.542;2023-06-10T00:22:12;10.87;;;10.00;;
1404;SDS011;697;51.114;6.542;2023-06-10T00:24:40;11.33;;;10.33;;
1404;SDS011;697;51.114;6.542;2023-06-10T00:27:07;10.43;;;9.63;;
1404;SDS011;697;51.114;6.542;2023-06-10T00:29:34;10.77;;;9.97;;
1404;SDS011;697;51.114;6.542;2023-06-10T00:32:01;10.87;;;9.90;;
1404;SDS011;697;51.114;6.542;2023-06-10T00:34:28;11.50;;;10.60;;
1404;SDS011;697;51.114;6.542;2023-06-10T00:36:55;11.10;;;10.13;;
1404;SDS011;697;51.114;6.542;2023-06-10T00:39:21;10.93;;;10.10;;
1404;SDS011;697;51.114;6.542;2023-06-10T00:41:49;11.07;;;10.17;;
1404;SDS011;697;51.114;6.542;2023-06-10T00:44:16;10.73;;;9.93;;
1404;SDS011;697;51.114;6.542;2023-06-10T00:46:43;11.47;;;10.47;;
1404;SDS011;697;51.114;6.542;2023-06-10T00:49:10;12.37;;;11.37;;
1404;SDS011;697;51.114;6.542;2023-06-10T00:51:37;11.77;;;10.77;;
1404;SDS011;697;51.114;6.542;2023-06-10T00:54:04;10.83;;;10.00;;
1404;SDS011;697;51.114;6.542;2023-06-10T00:56:31;11.73;;;10.83;;
1404;SDS011;697;51.114;6.542;2023-06-10T00:59:02;11.57;;;10.47;;
1404;SDS011;697;51.114;6.542;2023-06-10T01:01:29;11.77;;;10.87;;
1404;SDS011;697;51.114;6.542;2023-06-10T01:03:55;11.83;;;10.33;;
1404;SDS011;697;51.114;6.542;2023-06-10T01:06:24;12.57;;;11.40;;
1404;SDS011;697;51.114;6.542;2023-06-10T01:09:01;10.87;;;9.87;;
1404;SDS011;697;51.114;6.542;2023-06-10T01:11:34;12.37;;;11.23;;
1404;SDS011;697;51.114;6.542;2023-06-10T01:14:08;12.00;;;10.90;;
1404;SDS011;697;51.114;6.542;2023-06-10T01:16:36;13.13;;;10.10;;
1404;SDS011;697;51.114;6.542;2023-06-10T01:19:05;11.07;;;10.27;;
1404;SDS011;697;51.114;6.542;2023-06-10T01:21:34;12.37;;;11.27;;
1404;SDS011;697;51.114;6.542;2023-06-10T01:24:01;12.27;;;11.07;;
1404;SDS011;697;51.114;6.542;2023-06-10T01:26:28;11.73;;;10.43;;
1404;SDS011;697;51.114;6.542;2023-06-10T01:28:58;11.30;;;10.40;;
1404;SDS011;697;51.114;6.542;2023-06-10T01:31:30;11.27;;;10.37;;
1404;SDS011;697;51.114;6.542;2023-06-10T01:34:01;11.60;;;10.70;;
1404;SDS011;697;51.114;6.542;2023-06-10T01:36:32;11.30;;;10.30;;
1404;SDS011;697;51.114;6.542;2023-06-10T01:39:02;10.53;;;9.63;;
1404;SDS011;697;51.114;6.542;2023-06-10T01:41:31;10.97;;;9.90;;
1404;SDS011;697;51.114;6.542;2023-06-10T01:43:58;9.70;;;8.63;;
1404;SDS011;697;51.114;6.542;2023-06-10T01:46:25;11.43;;;10.43;;
1404;SDS011;697;51.114;6.542;2023-06-10T01:48:52;11.37;;;10.50;;
1404;SDS011;697;51.114;6.542;2023-06-10T01:51:18;12.10;;;11.00;;
1404;SDS011;697;51.114;6.542;2023-06-10T01:53:46;12.47;;;11.27;;
1404;SDS011;697;51.114;6.542;2023-06-10T01:56:13;11.87;;;10.80;;
1404;SDS011;697;51.114;6.542;2023-06-10T01:58:42;12.33;;;11.13;;
1404;SDS011;697;51.114;6.542;2023-06-10T02:01:09;11.50;;;10.40;;
1404;SDS011;697;51.114;6.542;2023-06-10T02:03:36;11.20;;;10.30;;
1404;SDS011;697;51.114;6.542;2023-06-10T02:06:03;11.20;;;10.20;;
1404;SDS011;697;51.114;6.542;2023-06-10T02:08:30;11.47;;;10.27;;
1404;SDS011;697;51.114;6.542;2023-06-10T02:10:58;11.07;;;9.83;;
1404;SDS011;697;51.114;6.542;2023-06-10T02:13:25;10.73;;;9.70;;
1404;SDS011;697;51.114;6.542;2023-06-10T02:15:51;11.03;;;10.03;;
1404;SDS011;697;51.114;6.542;2023-06-10T02:18:19;12.13;;;10.93;;
1404;SDS011;697;51.114;6.542;2023-06-10T02:20:46;11.57;;;10.57;;
1404;SDS011;697;51.114;6.542;2023-06-10T02:23:13;10.77;;;9.67;;
1404;SDS011;697;51.114;6.542;2023-06-10T02:25:40;11.77;;;10.57;;
1404;SDS011;697;51.114;6.542;2023-06-10T02:28:08;11.90;;;10.90;;
1404;SDS011;697;51.114;6.542;2023-06-10T02:30:35;13.03;;;11.10;;
1404;SDS011;697;51.114;6.542;2023-06-10T02:33:05;12.80;;;11.70;;
1404;SDS011;697;51.114;6.542;2023-06-10T02:35:34;11.37;;;10.23;;
1404;SDS011;697;51.114;6.542;2023-06-10T02:38:01;12.83;;;11.67;;
1404;SDS011;697;51.114;6.542;2023-06-10T02:40:29;12.37;;;11.17;;
1404;SDS011;697;51.114;6.542;2023-06-10T02:42:55;11.93;;;10.90;;
1404;SDS011;697;51.114;6.542;2023-06-10T02:45:24;12.97;;;11.83;;
1404;SDS011;697;51.114;6.542;2023-06-10T02:47:50;12.73;;;11.57;;
1404;SDS011;697;51.114;6.542;2023-06-10T02:50:17;11.90;;;10.77;;
1404;SDS011;697;51.114;6.542;2023-06-10T02:52:44;12.23;;;11.10;;
1404;SDS011;697;51.114;6.542;2023-06-10T02:55:11;11.73;;;10.63;;
1404;SDS011;697;51.114;6.542;2023-06-10T02:57:37;12.10;;;10.80;;
1404;SDS011;697;51.114;6.542;2023-06-10T03:00:05;12.33;;;10.40;;
1404;SDS011;697;51.114;6.542;2023-06-10T03:02:36;13.47;;;11.27;;
1404;SDS011;697;51.114;6.542;2023-06-10T03:05:03;15.13;;;10.63;;
1404;SDS011;697;51.114;6.542;2023-06-10T03:07:31;10.53;;;9.37;;
1404;SDS011;697;51.114;6.542;2023-06-10T03:10:00;11.37;;;10.10;;
1404;SDS011;697;51.114;6.542;2023-06-10T03:12:26;12.30;;;11.17;;
1404;SDS011;697;51.114;6.542;2023-06-10T03:14:53;15.40;;;11.43;;
1404;SDS011;697;51.114;6.542;2023-06-10T03:17:20;11.03;;;10.20;;
1404;SDS011;697;51.114;6.542;2023-06-10T03:19:48;11.90;;;10.90;;
1404;SDS011;697;51.114;6.542;2023-06-10T03:22:15;12.37;;;11.07;;
1404;SDS011;697;51.114;6.542;2023-06-10T03:24:42;13.40;;;12.03;;
1404;SDS011;697;51.114;6.542;2023-06-10T03:27:11;13.00;;;11.80;;
1404;SDS011;697;51.114;6.542;2023-06-10T03:29:38;14.90;;;12.37;;
1404;SDS011;697;51.114;6.542;2023-06-10T03:32:05;14.10;;;12.90;;
1404;SDS011;697;51.114;6.542;2023-06-10T03:34:32;14.37;;;13.10;;
1404;SDS011;697;51.114;6.542;2023-06-10T03:37:01;13.23;;;11.93;;
1404;SDS011;697;51.114;6.542;2023-06-10T03:39:28;13.50;;;12.30;;
1404;SDS011;697;51.114;6.542;2023-06-10T03:41:54;15.07;;;11.77;;
1404;SDS011;697;51.114;6.542;2023-06-10T03:44:22;12.50;;;11.30;;
1404;SDS011;697;51.114;6.542;2023-06-10T03:46:48;12.43;;;11.33;;
1404;SDS011;697;51.114;6.542;2023-06-10T03:49:15;13.10;;;11.80;;
1404;SDS011;697;51.114;6.542;2023-06-10T03:51:42;13.73;;;11.90;;
1404;SDS011;697;51.114;6.542;2023-06-10T03:54:10;13.20;;;12.10;;
1404;SDS011;697;51.114;6.542;2023-06-10T03:56:36;12.47;;;11.17;;
1404;SDS011;697;51.114;6.542;2023-06-10T03:59:04;12.23;;;11.13;;
1404;SDS011;697;51.114;6.542;2023-06-10T04:01:30;12.77;;;11.57;;
1404;SDS011;697;51.114;6.542;2023-06-10T04:03:58;12.60;;;10.83;;
1404;SDS011;697;51.114;6.542;2023-06-10T04:06:26;12.67;;;10.50;;
1404;SDS011;697;51.114;6.542;2023-06-10T04:08:54;19.10;;;12.30;;
1404;SDS011;697;51.114;6.542;2023-06-10T04:11:23;13.33;;;12.00;;
1404;SDS011;697;51.114;6.542;2023-06-10T04:13:50;14.77;;;13.00;;
1404;SDS011;697;51.114;6.542;2023-06-10T04:16:16;14.00;;;12.70;;
1404;SDS011;697;51.114;6.542;2023-06-10T04:18:43;13.97;;;12.67;;
1404;SDS011;697;51.114;6.542;2023-06-10T04:21:10;13.33;;;12.03;;
1404;SDS011;697;51.114;6.542;2023-06-10T04:23:38;14.33;;;13.10;;
1404;SDS011;697;51.114;6.542;2023-06-10T04:26:04;15.87;;;13.20;;
1404;SDS011;697;51.114;6.542;2023-06-10T04:28:33;13.20;;;12.10;;
1404;SDS011;697;51.114;6.542;2023-06-10T04:31:01;12.90;;;11.83;;
1404;SDS011;697;51.114;6.542;2023-06-10T04:33:29;13.90;;;12.60;;
1404;SDS011;697;51.114;6.542;2023-06-10T04:35:55;12.83;;;11.73;;
1404;SDS011;697;51.114;6.542;2023-06-10T04:38:22;14.30;;;12.97;;
1404;SDS011;697;51.114;6.542;2023-06-10T04:40:49;15.33;;;13.87;;
1404;SDS011;697;51.114;6.542;2023-06-10T04:43:16;14.40;;;12.90;;
1404;SDS011;697;51.114;6.542;2023-06-10T04:45:44;14.10;;;12.90;;
1404;SDS011;697;51.114;6.542;2023-06-10T04:48:11;14.70;;;13.60;;
1404;SDS011;697;51.114;6.542;2023-06-10T04:50:38;14.50;;;13.40;;
1404;SDS011;697;51.114;6.542;2023-06-10T04:53:05;14.47;;;13.40;;
1404;SDS011;697;51.114;6.542;2023-06-10T04:55:32;15.00;;;13.70;;
1404;SDS011;697;51.114;6.542;2023-06-10T04:57:59;15.40;;;14.00;;
1404;SDS011;697;51.114;6.542;2023-06-10T05:00:25;13.57;;;12.43;;
1404;SDS011;697;51.114;6.542;2023-06-10T05:02:54;13.80;;;12.40;;
1404;SDS011;697;51.114;6.542;2023-06-10T05:05:21;13.60;;;12.30;;
1404;SDS011;697;51.114;6.542;2023-06-10T05:07:47;13.67;;;12.27;;
1404;SDS011;697;51.114;6.542;2023-06-10T05:10:14;14.10;;;12.97;;
1404;SDS011;697;51.114;6.542;2023-06-10T05:12:41;14.20;;;12.80;;
1404;SDS011;697;51.114;6.542;2023-06-10T05:15:08;14.10;;;12.90;;
1404;SDS011;697;51.114;6.542;2023-06-10T05:17:35;14.23;;;12.93;;
1404;SDS011;697;51.114;6.542;2023-06-10T05:20:04;14.27;;;12.97;;
1404;SDS011;697;51.114;6.542;2023-06-10T05:22:31;13.23;;;12.03;;
1404;SDS011;697;51.114;6.542;2023-06-10T05:24:58;15.10;;;13.53;;
1404;SDS011;697;51.114;6.542;2023-06-10T05:27:24;15.37;;;13.80;;
1404;SDS011;697;51.114;6.542;2023-06-10T05:29:51;14.37;;;13.17;;
1404;SDS011;697;51.114;6.542;2023-06-10T05:32:18;13.43;;;12.43;;
1404;SDS011;697;51.114;6.542;2023-06-10T05:34:44;12.20;;;11.17;;
1404;SDS011;697;51.114;6.542;2023-06-10T05:37:13;14.03;;;12.93;;
1404;SDS011;697;51.114;6.542;2023-06-10T05:39:40;12.80;;;11.70;;
1404;SDS011;697;51.114;6.542;2023-06-10T05:42:07;13.67;;;12.47;;
1404;SDS011;697;51.114;6.542;2023-06-10T05:44:34;15.07;;;13.67;;
1404;SDS011;697;51.114;6.542;2023-06-10T05:47:01;15.03;;;13.63;;
1404;SDS011;697;51.114;6.542;2023-06-10T05:49:28;13.93;;;12.80;;
1404;SDS011;697;51.114;6.542;2023-06-10T05:51:54;14.30;;;13.00;;
1404;SDS011;697;51.114;6.542;2023-06-10T05:54:24;13.77;;;11.43;;
1404;SDS011;697;51.114;6.542;2023-06-10T05:56:51;11.53;;;10.53;;
1404;SDS011;697;51.114;6.542;2023-06-10T05:59:18;11.63;;;10.53;;
1404;SDS011;697;51.114;6.542;2023-06-10T06:01:44;13.00;;;11.90;;
1404;SDS011;697;51.114;6.542;2023-06-10T06:04:11;12.73;;;11.73;;
1404;SDS011;697;51.114;6.542;2023-06-10T06:06:38;12.80;;;11.80;;
1404;SDS011;697;51.114;6.542;2023-06-10T06:09:06;13.73;;;12.63;;
1404;SDS011;697;51.114;6.542;2023-06-10T06:11:34;14.50;;;13.10;;
1404;SDS011;697;51.114;6.542;2023-06-10T06:14:01;11.53;;;10.40;;
1404;SDS011;697;51.114;6.542;2023-06-10T06:16:27;12.10;;;11.10;;
1404;SDS011;697;51.114;6.542;2023-06-10T06:18:54;13.17;;;11.97;;
1404;SDS011;697;51.114;6.542;2023-06-10T06:21:21;14.13;;;13.00;;
1404;SDS011;697;51.114;6.542;2023-06-10T06:23:48;13.20;;;12.10;;
1404;SDS011;697;51.114;6.542;2023-06-10T06:26:14;13.33;;;12.13;;
1404;SDS011;697;51.114;6.542;2023-06-10T06:28:42;11.13;;;10.20;;
1404;SDS011;697;51.114;6.542;2023-06-10T06:31:09;11.10;;;10.10;;
1404;SDS011;697;51.114;6.542;2023-06-10T06:33:36;10.20;;;9.20;;
1404;SDS011;697;51.114;6.542;2023-06-10T06:36:03;9.30;;;8.50;;
1404;SDS011;697;51.114;6.542;2023-06-10T06:38:29;9.60;;;8.80;;
1404;SDS011;697;51.114;6.542;2023-06-10T06:40:56;10.20;;;9.50;;
1404;SDS011;697;51.114;6.542;2023-06-10T06:43:27;9.33;;;8.27;;
1404;SDS011;697;51.114;6.542;2023-06-10T06:45:55;10.27;;;9.37;;
1404;SDS011;697;51.114;6.542;2023-06-10T06:48:22;9.27;;;8.60;;
1404;SDS011;697;51.114;6.542;2023-06-10T06:50:49;10.60;;;9.27;;
1404;SDS011;697;51.114;6.542;2023-06-10T06:53:16;11.70;;;10.60;;
1404;SDS011;697;51.114;6.542;2023-06-10T06:55:42;10.73;;;9.53;;
1404;SDS011;697;51.114;6.542;2023-06-10T06:58:09;10.87;;;9.60;;
1404;SDS011;697;51.114;6.542;2023-06-10T07:00:36;9.87;;;8.70;;
1404;SDS011;697;51.114;6.542;2023-06-10T07:03:04;9.00;;;8.30;;
1404;SDS011;697;51.114;6.542;2023-06-10T07:05:30;9.57;;;8.77;;
1404;SDS011;697;51.114;6.542;2023-06-10T07:07:57;9.20;;;8.50;;
1404;SDS011;697;51.114;6.542;2023-06-10T07:10:24;10.10;;;8.70;;
1404;SDS011;697;51.114;6.542;2023-06-10T07:12:51;8.03;;;7.43;;
1404;SDS011;697;51.114;6.542;2023-06-10T07:15:18;9.27;;;8.37;;
1404;SDS011;697;51.114;6.542;2023-06-10T07:17:45;9.30;;;8.60;;
1404;SDS011;697;51.114;6.542;2023-06-10T07:20:13;9.97;;;8.97;;
1404;SDS011;697;51.114;6.542;2023-06-10T07:22:40;9.67;;;8.77;;
1404;SDS011;697;51.114;6.542;2023-06-10T07:25:07;9.27;;;8.57;;
1404;SDS011;697;51.114;6.542;2023-06-10T07:27:34;7.83;;;7.13;;
1404;SDS011;697;51.114;6.542;2023-06-10T07:30:02;8.70;;;8.00;;
1404;SDS011;697;51.114;6.542;2023-06-10T07:32:29;7.90;;;7.00;;
1404;SDS011;697;51.114;6.542;2023-06-10T07:34:56;8.00;;;7.40;;
1404;SDS011;697;51.114;6.542;2023-06-10T07:37:24;8.43;;;7.60;;
1404;SDS011;697;51.114;6.542;2023-06-10T07:39:51;7.87;;;7.20;;
1404;SDS011;697;51.114;6.542;2023-06-10T07:42:17;8.40;;;7.60;;
1404;SDS011;697;51.114;6.542;2023-06-10T07:44:44;7.17;;;6.47;;
1404;SDS011;697;51.114;6.542;2023-06-10T07:47:11;7.33;;;6.73;;
1404;SDS011;697;51.114;6.542;2023-06-10T07:49:37;7.53;;;7.00;;
1404;SDS011;697;51.114;6.542;2023-06-10T07:52:05;7.73;;;7.03;;
1404;SDS011;697;51.114;6.542;2023-06-10T07:54:33;8.10;;;7.03;;
1404;SDS011;697;51.114;6.542;2023-06-10T07:57:00;6.80;;;6.30;;
1404;SDS011;697;51.114;6.542;2023-06-10T07:59:27;7.67;;;7.07;;
1404;SDS011;697;51.114;6.542;2023-06-10T08:01:54;6.83;;;6.43;;
1404;SDS011;697;51.114;6.542;2023-06-10T08:04:20;7.30;;;6.60;;
1404;SDS011;697;51.114;6.542;2023-06-10T08:06:47;7.33;;;6.70;;
1404;SDS011;697;51.114;6.542;2023-06-10T08:09:14;13.13;;;7.40;;
1404;SDS011;697;51.114;6.542;2023-06-10T08:11:42;7.50;;;6.90;;
1404;SDS011;697;51.114;6.542;2023-06-10T08:14:09;9.40;;;7.80;;
1404;SDS011;697;51.114;6.542;2023-06-10T08:16:35;7.80;;;7.30;;
1404;SDS011;697;51.114;6.542;2023-06-10T08:19:02;8.73;;;7.70;;
1404;SDS011;697;51.114;6.542;2023-06-10T08:21:29;8.27;;;7.30;;
1404;SDS011;697;51.114;6.542;2023-06-10T08:23:56;9.80;;;6.83;;
1404;SDS011;697;51.114;6.542;2023-06-10T08:26:23;7.80;;;7.10;;
1404;SDS011;697;51.114;6.542;2023-06-10T08:28:51;8.13;;;7.53;;
1404;SDS011;697;51.114;6.542;2023-06-10T08:31:19;8.10;;;7.50;;
1404;SDS011;697;51.114;6.542;2023-06-10T08:33:46;7.20;;;6.80;;
1404;SDS011;697;51.114;6.542;2023-06-10T08:36:12;8.57;;;7.87;;
1404;SDS011;697;51.114;6.542;2023-06-10T08:38:39;7.77;;;7.27;;
1404;SDS011;697;51.114;6.542;2023-06-10T08:41:06;8.70;;;7.90;;
1404;SDS011;697;51.114;6.542;2023-06-10T08:43:36;8.30;;;7.60;;
1404;SDS011;697;51.114;6.542;2023-06-10T08:46:09;9.20;;;8.40;;
1404;SDS011;697;51.114;6.542;2023-06-10T08:48:38;8.40;;;7.70;;
1404;SDS011;697;51.114;6.542;2023-06-10T08:51:08;8.83;;;7.90;;
1404;SDS011;697;51.114;6.542;2023-06-10T08:53:36;9.57;;;8.77;;
1404;SDS011;697;51.114;6.542;2023-06-10T08:56:08;7.90;;;7.40;;
1404;SDS011;697;51.114;6.542;2023-06-10T08:58:36;8.07;;;7.30;;
1404;SDS011;697;51.114;6.542;2023-06-10T09:01:06;8.70;;;8.10;;
1404;SDS011;697;51.114;6.542;2023-06-10T09:03:36;9.00;;;8.30;;
1404;SDS011;697;51.114;6.542;2023-06-10T09:06:04;7.90;;;7.23;;
1404;SDS011;697;51.114;6.542;2023-06-10T09:08:33;8.40;;;7.47;;
1404;SDS011;697;51.114;6.542;2023-06-10T09:11:00;9.30;;;8.50;;
1404;SDS011;697;51.114;6.542;2023-06-10T09:13:27;9.00;;;8.30;;
1404;SDS011;697;51.114;6.542;2023-06-10T09:15:54;9.30;;;8.70;;
1404;SDS011;697;51.114;6.542;2023-06-10T09:18:26;9.00;;;8.30;;
1404;SDS011;697;51.114;6.542;2023-06-10T09:20:53;8.57;;;7.97;;
1404;SDS011;697;51.114;6.542;2023-06-10T09:23:20;8.73;;;8.13;;
1404;SDS011;697;51.114;6.542;2023-06-10T09:25:53;8.50;;;7.83;;
1404;SDS011;697;51.114;6.542;2023-06-10T09:28:22;8.43;;;7.73;;
1404;SDS011;697;51.114;6.542;2023-06-10T09:30:49;9.33;;;8.47;;
1404;SDS011;697;51.114;6.542;2023-06-10T09:33:17;9.07;;;8.27;;
1404;SDS011;697;51.114;6.542;2023-06-10T09:35:49;9.17;;;8.37;;
1404;SDS011;697;51.114;6.542;2023-06-10T09:38:19;10.20;;;8.10;;
1404;SDS011;697;51.114;6.542;2023-06-10T09:40:50;8.60;;;7.90;;
1404;SDS011;697;51.114;6.542;2023-06-10T09:43:17;8.20;;;7.50;;
1404;SDS011;697;51.114;6.542;2023-06-10T09:45:47;11.60;;;7.78;;
1404;SDS011;697;51.114;6.542;2023-06-10T09:48:14;8.77;;;8.15;;
1404;SDS011;697;51.114;6.542;2023-06-10T09:50:41;8.63;;;7.93;;
1404;SDS011;697;51.114;6.542;2023-06-10T09:53:10;8.27;;;7.63;;
1404;SDS011;697;51.114;6.542;2023-06-10T09:55:37;8.63;;;8.00;;
1404;SDS011;697;51.114;6.542;2023-06-10T09:58:04;8.65;;;8.05;;
1404;SDS011;697;51.114;6.542;2023-06-10T10:00:31;8.27;;;7.68;;
1404;SDS011;697;51.114;6.542;2023-06-10T10:02:58;9.50;;;8.68;;
1404;SDS011;697;51.114;6.542;2023-06-10T10:05:26;8.85;;;8.05;;
1404;SDS011;697;51.114;6.542;2023-06-10T10:07:54;9.30;;;8.30;;
1404;SDS011;697;51.114;6.542;2023-06-10T10:10:23;8.88;;;8.18;;
1404;SDS011;697;51.114;6.542;2023-06-10T10:12:51;9.10;;;7.93;;
1404;SDS011;697;51.114;6.542;2023-06-10T10:15:20;9.00;;;8.38;;
1404;SDS011;697;51.114;6.542;2023-06-10T10:17:51;8.95;;;7.40;;
1404;SDS011;697;51.114;6.542;2023-06-10T10:20:22;8.07;;;7.47;;
1404;SDS011;697;51.114;6.542;2023-06-10T10:22:53;7.95;;;7.30;;
1404;SDS011;697;51.114;6.542;2023-06-10T10:25:24;7.97;;;7.47;;
1404;SDS011;697;51.114;6.542;2023-06-10T10:27:55;8.50;;;7.45;;
1404;SDS011;697;51.114;6.542;2023-06-10T10:30:24;10.65;;;8.27;;
1404;SDS011;697;51.114;6.542;2023-06-10T10:32:55;12.75;;;8.50;;
1404;SDS011;697;51.114;6.542;2023-06-10T10:35:24;7.40;;;6.80;;
1404;SDS011;697;51.114;6.542;2023-06-10T10:37:52;10.88;;;8.23;;
1404;SDS011;697;51.114;6.542;2023-06-10T10:40:20;9.18;;;7.00;;
1404;SDS011;697;51.114;6.542;2023-06-10T10:42:49;7.70;;;7.00;;
1404;SDS011;697;51.114;6.542;2023-06-10T10:45:16;7.82;;;7.18;;
1404;SDS011;697;51.114;6.542;2023-06-10T10:47:45;8.68;;;7.22;;
1404;SDS011;697;51.114;6.542;2023-06-10T10:50:12;7.72;;;7.13;;
1404;SDS011;697;51.114;6.542;2023-06-10T10:55:22;8.23;;;7.47;;
1404;SDS011;697;51.114;6.542;2023-06-10T10:57:57;10.20;;;7.40;;
1404;SDS011;697;51.114;6.542;2023-06-10T11:00:29;7.25;;;6.55;;
1404;SDS011;697;51.114;6.542;2023-06-10T11:03:03;7.30;;;6.60;;
1404;SDS011;697;51.114;6.542;2023-06-10T11:05:36;16.10;;;6.88;;
1404;SDS011;697;51.114;6.542;2023-06-10T11:08:05;7.70;;;7.00;;
1404;SDS011;697;51.114;6.542;2023-06-10T11:10:33;6.90;;;6.30;;
1404;SDS011;697;51.114;6.542;2023-06-10T11:13:02;6.80;;;6.20;;
1404;SDS011;697;51.114;6.542;2023-06-10T11:15:33;7.15;;;6.55;;
1404;SDS011;697;51.114;6.542;2023-06-10T11:18:11;9.65;;;5.97;;
1404;SDS011;697;51.114;6.542;2023-06-10T11:20:53;6.55;;;5.93;;
1404;SDS011;697;51.114;6.542;2023-06-10T11:23:40;8.90;;;6.68;;
1404;SDS011;697;51.114;6.542;2023-06-10T11:26:18;7.70;;;6.72;;
1404;SDS011;697;51.114;6.542;2023-06-10T11:29:05;7.25;;;6.75;;
1404;SDS011;697;51.114;6.542;2023-06-10T11:34:23;8.35;;;6.85;;
1404;SDS011;697;51.114;6.542;2023-06-10T11:36:52;8.20;;;6.68;;
1404;SDS011;697;51.114;6.542;2023-06-10T11:39:20;7.72;;;6.82;;
1404;SDS011;697;51.114;6.542;2023-06-10T11:41:51;7.75;;;6.78;;
1404;SDS011;697;51.114;6.542;2023-06-10T11:44:19;8.23;;;7.18;;
1404;SDS011;697;51.114;6.542;2023-06-10T11:46:47;8.07;;;7.57;;
1404;SDS011;697;51.114;6.542;2023-06-10T11:49:15;9.20;;;7.95;;
1404;SDS011;697;51.114;6.542;2023-06-10T11:51:41;7.68;;;7.13;;
1404;SDS011;697;51.114;6.542;2023-06-10T11:54:14;8.95;;;8.25;;
1404;SDS011;697;51.114;6.542;2023-06-10T11:56:41;8.60;;;7.80;;
1404;SDS011;697;51.114;6.542;2023-06-10T11:59:07;8.13;;;7.53;;
1404;SDS011;697;51.114;6.542;2023-06-10T12:01:36;8.75;;;8.07;;
1404;SDS011;697;51.114;6.542;2023-06-10T12:04:05;9.18;;;7.70;;
1404;SDS011;697;51.114;6.542;2023-06-10T12:06:40;8.73;;;7.93;;
1404;SDS011;697;51.114;6.542;2023-06-10T12:09:12;8.40;;;7.80;;
1404;SDS011;697;51.114;6.542;2023-06-10T12:11:40;9.98;;;8.18;;
1404;SDS011;697;51.114;6.542;2023-06-10T12:14:08;7.97;;;7.38;;
1404;SDS011;697;51.114;6.542;2023-06-10T12:16:36;8.43;;;7.63;;
1404;SDS011;697;51.114;6.542;2023-06-10T12:19:03;7.82;;;7.32;;
1404;SDS011;697;51.114;6.542;2023-06-10T12:21:32;7.95;;;7.35;;
1404;SDS011;697;51.114;6.542;2023-06-10T12:24:00;9.05;;;8.32;;
1404;SDS011;697;51.114;6.542;2023-06-10T12:26:33;9.52;;;8.68;;
1404;SDS011;697;51.114;6.542;2023-06-10T12:29:20;8.32;;;7.53;;
1404;SDS011;697;51.114;6.542;2023-06-10T12:31:57;9.02;;;8.43;;
1404;SDS011;697;51.114;6.542;2023-06-10T12:34:29;7.93;;;7.43;;
1404;SDS011;697;51.114;6.542;2023-06-10T12:36:56;7.15;;;6.45;;
1404;SDS011;697;51.114;6.542;2023-06-10T12:39:23;7.35;;;6.78;;
1404;SDS011;697;51.114;6.542;2023-06-10T12:41:50;6.50;;;6.00;;
1404;SDS011;697;51.114;6.542;2023-06-10T12:44:18;7.55;;;7.00;;
1404;SDS011;697;51.114;6.542;2023-06-10T12:46:46;7.35;;;6.65;;
1404;SDS011;697;51.114;6.542;2023-06-10T12:49:22;7.68;;;6.97;;
1404;SDS011;697;51.114;6.542;2023-06-10T12:51:50;7.53;;;6.78;;
1404;SDS011;697;51.114;6.542;2023-06-10T12:54:16;7.72;;;6.97;;
1404;SDS011;697;51.114;6.542;2023-06-10T12:56:43;7.95;;;7.22;;
1404;SDS011;697;51.114;6.542;2023-06-10T12:59:10;7.90;;;7.20;;
1404;SDS011;697;51.114;6.542;2023-06-10T13:01:37;7.60;;;6.93;;
1404;SDS011;697;51.114;6.542;2023-06-10T13:04:04;8.02;;;7.28;;
1404;SDS011;697;51.114;6.542;2023-06-10T13:06:33;19.20;;;9.50;;
1404;SDS011;697;51.114;6.542;2023-06-10T13:09:04;10.40;;;8.05;;
1404;SDS011;697;51.114;6.542;2023-06-10T13:11:33;8.07;;;6.90;;
1404;SDS011;697;51.114;6.542;2023-06-10T13:14:00;7.45;;;6.80;;
1404;SDS011;697;51.114;6.542;2023-06-10T13:16:27;9.52;;;7.15;;
1404;SDS011;697;51.114;6.542;2023-06-10T13:18:55;10.65;;;7.28;;
1404;SDS011;697;51.114;6.542;2023-06-10T13:21:21;6.28;;;5.80;;
1404;SDS011;697;51.114;6.542;2023-06-10T13:23:49;7.47;;;6.88;;
1404;SDS011;697;51.114;6.542;2023-06-10T13:26:16;8.75;;;6.15;;
1404;SDS011;697;51.114;6.542;2023-06-10T13:28:43;6.60;;;6.10;;
1404;SDS011;697;51.114;6.542;2023-06-10T13:31:10;7.07;;;6.40;;
1404;SDS011;697;51.114;6.542;2023-06-10T13:33:37;7.32;;;6.75;;
1404;SDS011;697;51.114;6.542;2023-06-10T13:36:04;7.00;;;6.50;;
1404;SDS011;697;51.114;6.542;2023-06-10T13:38:31;7.40;;;6.80;;
1404;SDS011;697;51.114;6.542;2023-06-10T13:40:59;7.75;;;7.03;;
1404;SDS011;697;51.114;6.542;2023-06-10T13:43:26;10.02;;;7.15;;
1404;SDS011;697;51.114;6.542;2023-06-10T13:45:53;7.88;;;7.10;;
1404;SDS011;697;51.114;6.542;2023-06-10T13:48:20;7.00;;;6.50;;
1404;SDS011;697;51.114;6.542;2023-06-10T13:50:47;7.60;;;6.10;;
1404;SDS011;697;51.114;6.542;2023-06-10T13:53:14;7.28;;;6.68;;
1404;SDS011;697;51.114;6.542;2023-06-10T13:55:40;6.72;;;6.13;;
1404;SDS011;697;51.114;6.542;2023-06-10T13:58:08;6.47;;;5.93;;
1404;SDS011;697;51.114;6.542;2023-06-10T14:00:35;14.52;;;6.53;;
1404;SDS011;697;51.114;6.542;2023-06-10T14:03:02;8.82;;;6.57;;
1404;SDS011;697;51.114;6.542;2023-06-10T14:05:29;8.07;;;6.75;;
1404;SDS011;697;51.114;6.542;2023-06-10T14:07:55;6.38;;;5.82;;
1404;SDS011;697;51.114;6.542;2023-06-10T14:10:22;6.53;;;5.93;;
1404;SDS011;697;51.114;6.542;2023-06-10T14:12:49;5.75;;;5.32;;
1404;SDS011;697;51.114;6.542;2023-06-10T14:15:17;7.53;;;6.80;;
1404;SDS011;697;51.114;6.542;2023-06-10T14:17:44;7.03;;;6.43;;
1404;SDS011;697;51.114;6.542;2023-06-10T14:20:11;6.18;;;5.60;;
1404;SDS011;697;51.114;6.542;2023-06-10T14:22:38;6.30;;;5.80;;
1404;SDS011;697;51.114;6.542;2023-06-10T14:25:05;6.20;;;5.70;;
1404;SDS011;697;51.114;6.542;2023-06-10T14:27:32;7.10;;;5.53;;
1404;SDS011;697;51.114;6.542;2023-06-10T14:29:59;5.95;;;5.47;;
1404;SDS011;697;51.114;6.542;2023-06-10T14:32:27;6.03;;;5.53;;
1404;SDS011;697;51.114;6.542;2023-06-10T14:34:54;5.40;;;5.00;;
1404;SDS011;697;51.114;6.542;2023-06-10T14:37:20;5.53;;;5.20;;
1404;SDS011;697;51.114;6.542;2023-06-10T14:39:47;6.25;;;5.65;;
1404;SDS011;697;51.114;6.542;2023-06-10T14:42:14;5.68;;;5.28;;
1404;SDS011;697;51.114;6.542;2023-06-10T14:44:40;8.57;;;5.70;;
1404;SDS011;697;51.114;6.542;2023-06-10T14:47:07;6.60;;;5.88;;
1404;SDS011;697;51.114;6.542;2023-06-10T14:49:35;6.35;;;5.70;;
1404;SDS011;697;51.114;6.542;2023-06-10T14:52:02;7.30;;;5.45;;
1404;SDS011;697;51.114;6.542;2023-06-10T14:54:29;12.45;;;6.70;;
1404;SDS011;697;51.114;6.542;2023-06-10T14:56:55;8.18;;;5.95;;
1404;SDS011;697;51.114;6.542;2023-06-10T14:59:22;7.47;;;6.60;;
1404;SDS011;697;51.114;6.542;2023-06-10T15:01:49;6.50;;;5.60;;
1404;SDS011;697;51.114;6.542;2023-06-10T15:04:15;6.90;;;6.40;;
1404;SDS011;697;51.114;6.542;2023-06-10T15:06:43;7.32;;;6.60;;
1404;SDS011;697;51.114;6.542;2023-06-10T15:09:10;8.70;;;6.82;;
1404;SDS011;697;51.114;6.542;2023-06-10T15:11:37;7.60;;;6.90;;
1404;SDS011;697;51.114;6.542;2023-06-10T15:14:04;7.43;;;6.75;;
1404;SDS011;697;51.114;6.542;2023-06-10T15:16:30;7.97;;;7.30;;
1404;SDS011;697;51.114;6.542;2023-06-10T15:18:57;7.40;;;6.70;;
1404;SDS011;697;51.114;6.542;2023-06-10T15:21:24;7.13;;;6.63;;
1404;SDS011;697;51.114;6.542;2023-06-10T15:23:51;6.97;;;6.47;;
1404;SDS011;697;51.114;6.542;2023-06-10T15:26:18;7.55;;;6.88;;